createdAt,value
2022-11-13T00:02:55.428Z,7.6
2022-11-13T00:08:01.431Z,8
2022-11-13T00:13:07.530Z,7.6
2022-11-13T00:18:13.626Z,7.6
2022-11-13T00:23:19.728Z,7.6
2022-11-13T00:28:25.835Z,7.6
2022-11-13T00:33:31.924Z,7.6
2022-11-13T00:38:38.065Z,8
2022-11-13T00:43:44.137Z,7.3
2022-11-13T00:48:50.300Z,7.6
2022-11-13T00:53:56.393Z,7.3
2022-11-13T00:59:02.424Z,7.6
2022-11-13T01:04:08.527Z,7.6
2022-11-13T01:09:13.642Z,7.6
2022-11-13T01:14:19.747Z,7.6
2022-11-13T01:19:25.837Z,7.6
2022-11-13T01:24:31.966Z,7.6
2022-11-13T01:29:38.052Z,7.6
2022-11-13T01:34:44.138Z,7.3
2022-11-13T01:39:50.245Z,7.3
2022-11-13T01:44:55.378Z,7
2022-11-13T01:50:00.481Z,7.3
2022-11-13T01:55:06.588Z,8
2022-11-13T02:00:11.691Z,7.3
2022-11-13T02:05:16.836Z,7
2022-11-13T02:10:22.920Z,7
2022-11-13T02:15:29.041Z,7.3
2022-11-13T02:20:35.116Z,7.3
2022-11-13T02:25:41.228Z,7.6
2022-11-13T02:30:47.326Z,7
2022-11-13T02:35:53.433Z,7
2022-11-13T02:40:59.515Z,7
2022-11-13T02:46:05.623Z,7
2022-11-13T02:51:11.726Z,7
2022-11-13T02:56:17.809Z,7.3
2022-11-13T03:01:23.930Z,7
2022-11-13T03:06:30.027Z,7
2022-11-13T03:11:35.138Z,7.6
2022-11-13T03:16:41.321Z,6.7
2022-11-13T03:21:47.353Z,7
2022-11-13T03:26:53.445Z,7
2022-11-13T03:31:59.553Z,7
2022-11-13T03:37:05.670Z,7
2022-11-13T03:42:11.745Z,6.7
2022-11-13T03:47:16.854Z,6.7
2022-11-13T03:52:21.981Z,7
2022-11-13T03:57:28.077Z,6.7
2022-11-13T04:02:33.197Z,7
2022-11-13T04:07:38.308Z,6.7
2022-11-13T04:12:44.413Z,7
2022-11-13T04:17:50.504Z,6.7
2022-11-13T04:22:56.605Z,7
2022-11-13T04:28:02.713Z,6.7
2022-11-13T04:33:08.802Z,6.3
2022-11-13T04:38:14.967Z,7.3
2022-11-13T04:43:20.996Z,7
2022-11-13T04:48:27.113Z,6.7
2022-11-13T04:53:33.205Z,7
2022-11-13T04:58:39.332Z,7.3
2022-11-13T05:03:45.431Z,6.7
2022-11-13T05:08:51.597Z,7
2022-11-13T05:13:56.659Z,6.7
2022-11-13T05:19:02.758Z,6.7
2022-11-13T05:24:08.852Z,6.3
2022-11-13T05:29:14.943Z,6.7
2022-11-13T05:34:21.068Z,6.7
2022-11-13T05:39:27.149Z,6.7
2022-11-13T05:44:33.248Z,6.7
2022-11-13T05:49:38.372Z,7.3
2022-11-13T05:54:43.489Z,7.3
2022-11-13T05:59:49.594Z,6.7
2022-11-13T06:04:55.697Z,6.7
2022-11-13T06:10:01.807Z,6.7
2022-11-13T06:15:07.898Z,6.7
2022-11-13T06:20:14.014Z,6.7
2022-11-13T06:25:20.098Z,6.3
2022-11-13T06:30:26.207Z,6.7
2022-11-13T06:35:32.350Z,6.3
2022-11-13T06:40:38.395Z,6.7
2022-11-13T06:45:44.496Z,6.7
2022-11-13T06:50:50.600Z,6.7
2022-11-13T06:55:56.716Z,6.3
2022-11-13T07:01:01.826Z,6.7
2022-11-13T07:06:07.908Z,6.7
2022-11-13T07:11:14.039Z,6.7
2022-11-13T07:16:20.160Z,6.3
2022-11-13T07:21:26.215Z,6.7
2022-11-13T07:26:32.333Z,6.7
2022-11-13T07:31:38.441Z,6.7
2022-11-13T07:36:43.684Z,6.7
2022-11-13T07:41:48.805Z,6.3
2022-11-13T07:46:53.769Z,7
2022-11-13T07:51:58.977Z,6.3
2022-11-13T07:57:05.000Z,6.3
2022-11-13T08:02:10.173Z,6.7
2022-11-13T08:07:15.220Z,6
2022-11-13T08:12:21.331Z,6.7
2022-11-13T08:17:27.426Z,6.3
2022-11-13T08:22:33.519Z,6.7
2022-11-13T08:27:39.656Z,6.7
2022-11-13T08:32:45.790Z,6.7
2022-11-13T08:37:51.881Z,6.7
2022-11-13T08:42:57.920Z,7
2022-11-13T08:48:04.023Z,7
2022-11-13T08:53:10.111Z,6.3
2022-11-13T08:58:16.215Z,6.3
2022-11-13T09:03:22.302Z,6.7
2022-11-13T09:08:28.411Z,6.7
2022-11-13T09:13:33.523Z,6.7
2022-11-13T09:18:39.614Z,6.7
2022-11-13T09:23:45.783Z,6.7
2022-11-13T09:28:51.803Z,6.3
2022-11-13T09:33:57.966Z,6.3
2022-11-13T09:39:04.023Z,6.7
2022-11-13T09:44:10.109Z,6.3
2022-11-13T09:49:15.228Z,6.7
2022-11-13T09:54:21.319Z,7.3
2022-11-13T09:59:26.444Z,7
2022-11-13T10:04:31.578Z,6.7
2022-11-13T10:09:37.656Z,6.7
2022-11-13T10:14:43.768Z,6.7
2022-11-13T10:19:49.964Z,6.7
2022-11-13T10:24:55.937Z,7
2022-11-13T10:30:02.113Z,7
2022-11-13T10:35:08.158Z,6.7
2022-11-13T10:40:14.324Z,6.7
2022-11-13T10:45:20.413Z,6.7
2022-11-13T10:50:26.450Z,6.7
2022-11-13T10:55:32.602Z,7.3
2022-11-13T11:00:38.705Z,6.7
2022-11-13T11:05:44.747Z,7.3
2022-11-13T11:10:49.864Z,7
2022-11-13T11:15:55.960Z,7
2022-11-13T11:21:02.049Z,7
2022-11-13T11:26:08.138Z,7
2022-11-13T11:31:13.257Z,6.7
2022-11-13T11:36:19.366Z,7
2022-11-13T11:41:25.585Z,7
2022-11-13T11:46:30.586Z,7
2022-11-13T11:51:35.707Z,7
2022-11-13T11:56:40.831Z,7
2022-11-13T12:01:45.931Z,7
2022-11-13T12:06:52.038Z,7
2022-11-13T12:11:58.145Z,7
2022-11-13T12:17:04.230Z,7.3
2022-11-13T12:22:10.321Z,7.3
2022-11-13T12:27:16.413Z,7.6
2022-11-13T12:32:22.518Z,7
2022-11-13T12:37:28.604Z,7.6
2022-11-13T12:42:34.707Z,7.6
2022-11-13T12:47:40.797Z,7.3
2022-11-13T12:52:46.913Z,7.3
2022-11-13T12:57:53.019Z,7.3
2022-11-13T13:02:59.251Z,7.3
2022-11-13T13:08:04.210Z,7.3
2022-11-13T13:13:10.315Z,7.3
2022-11-13T13:18:16.410Z,7.3
2022-11-13T13:23:22.528Z,7.6
2022-11-13T13:28:28.604Z,7.3
2022-11-13T13:33:34.706Z,7.3
2022-11-13T13:38:40.829Z,7.3
2022-11-13T13:43:45.917Z,7.3
2022-11-13T13:48:51.046Z,7.3
2022-11-13T13:53:56.148Z,7.3
2022-11-13T13:59:02.260Z,7.3
2022-11-13T14:04:07.370Z,7.3
2022-11-13T14:09:13.517Z,7.6
2022-11-13T14:14:19.785Z,7.6
2022-11-13T14:19:25.836Z,7.6
2022-11-13T14:24:31.883Z,7.6
2022-11-13T14:29:38.006Z,7.6
2022-11-13T14:34:44.174Z,7.6
2022-11-13T14:39:50.315Z,8.3
2022-11-13T14:44:56.282Z,7
2022-11-13T14:50:02.232Z,7.3
2022-11-13T14:55:08.455Z,7.6
2022-11-13T15:00:14.600Z,7.6
2022-11-13T15:05:20.759Z,8
2022-11-13T15:10:26.782Z,7.3
2022-11-13T15:15:31.940Z,7.6
2022-11-13T15:20:38.031Z,8.3
2022-11-13T15:25:44.146Z,7.6
2022-11-13T15:30:50.230Z,7.3
2022-11-13T15:35:56.375Z,8
2022-11-13T15:41:01.464Z,7.6
2022-11-13T15:46:06.371Z,8
2022-11-13T15:51:11.672Z,7.6
2022-11-13T15:56:16.832Z,7.3
2022-11-13T16:01:22.924Z,7.6
2022-11-13T16:06:29.001Z,7.3
2022-11-13T16:11:35.088Z,7.3
2022-11-13T16:16:41.248Z,7.3
2022-11-13T16:21:47.332Z,7.3
2022-11-13T16:26:53.367Z,7.6
2022-11-13T16:31:59.544Z,8
2022-11-13T16:37:05.581Z,7.6
2022-11-13T16:42:11.493Z,7.6
2022-11-13T16:47:17.719Z,7.3
2022-11-13T16:52:23.875Z,7.6
2022-11-13T16:57:29.897Z,7.3
2022-11-13T17:02:35.194Z,7.3
2022-11-13T17:07:41.008Z,7.3
2022-11-13T17:12:47.298Z,7.3
2022-11-13T17:17:53.467Z,7.6
2022-11-13T17:22:59.532Z,7.3
2022-11-13T17:28:05.625Z,7
2022-11-13T17:33:11.710Z,7
2022-11-13T17:38:16.777Z,7.3
2022-11-13T17:43:21.721Z,7.6
2022-11-13T17:48:27.053Z,7
2022-11-13T17:53:32.179Z,7.3
2022-11-13T17:58:38.065Z,7
2022-11-13T18:03:44.340Z,7
2022-11-13T18:08:50.258Z,7
2022-11-13T18:13:56.557Z,7.3
2022-11-13T18:19:02.602Z,7.3
2022-11-13T18:24:08.667Z,7.3
2022-11-13T18:29:14.703Z,7
2022-11-13T18:34:20.911Z,7
2022-11-13T18:39:27.000Z,7.3
2022-11-13T18:44:33.070Z,7
2022-11-13T18:49:39.131Z,7
2022-11-13T18:54:45.317Z,7
2022-11-13T18:59:50.253Z,7
2022-11-13T19:04:56.444Z,7
2022-11-13T19:10:02.481Z,7.6
2022-11-13T19:15:08.724Z,7.3
2022-11-13T19:20:14.761Z,7
2022-11-13T19:25:20.728Z,7
2022-11-13T19:30:26.942Z,7
2022-11-13T19:35:32.075Z,7
2022-11-13T19:40:37.065Z,7
2022-11-13T19:45:43.278Z,7.3
2022-11-13T19:50:48.414Z,7
2022-11-13T19:55:53.608Z,7
2022-11-13T20:00:59.608Z,6.7
2022-11-13T20:06:05.712Z,6.7
2022-11-13T20:11:11.893Z,7.3
2022-11-13T20:16:17.986Z,6.3
2022-11-13T20:21:24.056Z,6.7
2022-11-13T20:26:30.091Z,7
2022-11-13T20:31:36.243Z,7
2022-11-13T20:36:42.342Z,7
2022-11-13T20:41:48.408Z,7
2022-11-13T20:46:54.581Z,6.7
2022-11-13T20:52:00.479Z,7
2022-11-13T20:57:06.753Z,6.7
2022-11-13T21:02:11.836Z,6.7
2022-11-13T21:07:17.804Z,7
2022-11-13T21:12:24.158Z,6.7
2022-11-13T21:17:30.154Z,6.7
2022-11-13T21:22:36.105Z,6.7
2022-11-13T21:27:42.273Z,7
2022-11-13T21:32:48.291Z,6.7
2022-11-13T21:37:53.553Z,6.7
2022-11-13T21:42:58.527Z,6.7
2022-11-13T21:48:04.710Z,7
2022-11-13T21:53:10.842Z,6.7
2022-11-13T21:58:16.888Z,6.7
2022-11-13T22:03:22.939Z,7
2022-11-13T22:08:29.091Z,6.7
2022-11-13T22:13:35.121Z,6.7
2022-11-13T22:18:41.260Z,6.7
2022-11-13T22:23:47.364Z,6.7
2022-11-13T22:28:53.478Z,6.7
2022-11-13T22:33:59.497Z,6.7
2022-11-13T22:39:05.695Z,6.7
2022-11-13T22:44:11.774Z,6.7
2022-11-13T22:49:16.831Z,6.7
2022-11-13T22:54:22.964Z,6.3
2022-11-13T22:59:29.072Z,7
2022-11-13T23:04:35.140Z,6.3
2022-11-13T23:09:41.317Z,6.7
2022-11-13T23:14:47.312Z,6.3
2022-11-13T23:19:53.413Z,6.7
2022-11-13T23:24:58.635Z,6.3
2022-11-13T23:30:03.705Z,6.7
2022-11-13T23:35:08.838Z,6.3
2022-11-13T23:40:13.878Z,6.7
2022-11-13T23:45:19.000Z,6.7
2022-11-13T23:50:24.224Z,7
2022-11-13T23:55:30.254Z,6.3
